sensor_id;sensor_type;location;lat;lon;timestamp;temperature;humidity
49489;SHT31;35382;51.484;11.476;2023-04-15T00:00:58;6.42;89.95
49489;SHT31;35382;51.484;11.476;2023-04-15T00:02:39;6.49;89.23
49489;SHT31;35382;51.484;11.476;2023-04-15T00:04:20;6.48;89.22
49489;SHT31;35382;51.484;11.476;2023-04-15T00:06:01;6.37;89.36
49489;SHT31;35382;51.484;11.476;2023-04-15T00:07:42;6.40;89.56
49489;SHT31;35382;51.484;11.476;2023-04-15T00:09:23;6.51;89.24
49489;SHT31;35382;51.484;11.476;2023-04-15T00:11:04;6.49;88.64
49489;SHT31;35382;51.484;11.476;2023-04-15T00:12:45;6.48;88.81
49489;SHT31;35382;51.484;11.476;2023-04-15T00:14:26;6.38;89.23
49489;SHT31;35382;51.484;11.476;2023-04-15T00:16:08;6.45;89.06
49489;SHT31;35382;51.484;11.476;2023-04-15T00:17:49;6.42;89.46
49489;SHT31;35382;51.484;11.476;2023-04-15T00:19:31;6.37;89.87
49489;SHT31;35382;51.484;11.476;2023-04-15T00:21:12;6.48;89.46
49489;SHT31;35382;51.484;11.476;2023-04-15T00:22:53;6.38;88.92
49489;SHT31;35382;51.484;11.476;2023-04-15T00:24:34;6.41;89.56
49489;SHT31;35382;51.484;11.476;2023-04-15T00:26:15;6.47;89.22
49489;SHT31;35382;51.484;11.476;2023-04-15T00:27:57;6.49;89.52
49489;SHT31;35382;51.484;11.476;2023-04-15T00:29:38;6.48;89.05
49489;SHT31;35382;51.484;11.476;2023-04-15T00:31:19;6.35;89.44
49489;SHT31;35382;51.484;11.476;2023-04-15T00:33:00;6.42;89.56
49489;SHT31;35382;51.484;11.476;2023-04-15T00:34:44;6.38;89.80
49489;SHT31;35382;51.484;11.476;2023-04-15T00:36:26;6.38;89.90
49489;SHT31;35382;51.484;11.476;2023-04-15T00:38:07;6.41;89.53
49489;SHT31;35382;51.484;11.476;2023-04-15T00:39:48;6.38;89.46
49489;SHT31;35382;51.484;11.476;2023-04-15T00:41:29;6.44;89.66
49489;SHT31;35382;51.484;11.476;2023-04-15T00:43:10;6.42;89.63
49489;SHT31;35382;51.484;11.476;2023-04-15T00:44:51;6.41;89.80
49489;SHT31;35382;51.484;11.476;2023-04-15T00:46:34;6.34;90.15
49489;SHT31;35382;51.484;11.476;2023-04-15T00:48:15;6.41;90.11
49489;SHT31;35382;51.484;11.476;2023-04-15T00:49:57;6.31;90.44
49489;SHT31;35382;51.484;11.476;2023-04-15T00:51:38;6.35;89.84
49489;SHT31;35382;51.484;11.476;2023-04-15T00:53:18;6.30;89.95
49489;SHT31;35382;51.484;11.476;2023-04-15T00:55:00;6.21;90.56
49489;SHT31;35382;51.484;11.476;2023-04-15T00:56:41;6.27;90.71
49489;SHT31;35382;51.484;11.476;2023-04-15T00:58:22;6.18;90.53
49489;SHT31;35382;51.484;11.476;2023-04-15T01:00:04;6.25;90.66
49489;SHT31;35382;51.484;11.476;2023-04-15T01:01:47;6.18;90.53
49489;SHT31;35382;51.484;11.476;2023-04-15T01:03:28;6.16;91.31
49489;SHT31;35382;51.484;11.476;2023-04-15T01:05:10;6.23;91.36
49489;SHT31;35382;51.484;11.476;2023-04-15T01:06:51;6.10;91.77
49489;SHT31;35382;51.484;11.476;2023-04-15T01:08:32;6.16;92.27
49489;SHT31;35382;51.484;11.476;2023-04-15T01:10:13;6.20;91.64
49489;SHT31;35382;51.484;11.476;2023-04-15T01:11:54;6.16;91.57
49489;SHT31;35382;51.484;11.476;2023-04-15T01:13:36;6.17;91.99
49489;SHT31;35382;51.484;11.476;2023-04-15T01:15:17;6.16;91.87
49489;SHT31;35382;51.484;11.476;2023-04-15T01:16:57;6.06;92.23
49489;SHT31;35382;51.484;11.476;2023-04-15T01:18:39;5.97;92.60
49489;SHT31;35382;51.484;11.476;2023-04-15T01:20:21;6.00;92.61
49489;SHT31;35382;51.484;11.476;2023-04-15T01:22:02;6.07;92.66
49489;SHT31;35382;51.484;11.476;2023-04-15T01:23:46;6.09;92.86
49489;SHT31;35382;51.484;11.476;2023-04-15T01:25:32;6.04;92.76
49489;SHT31;35382;51.484;11.476;2023-04-15T01:27:13;5.94;92.67
49489;SHT31;35382;51.484;11.476;2023-04-15T01:28:54;5.97;93.17
49489;SHT31;35382;51.484;11.476;2023-04-15T01:30:36;5.97;92.63
49489;SHT31;35382;51.484;11.476;2023-04-15T01:32:16;5.99;92.55
49489;SHT31;35382;51.484;11.476;2023-04-15T01:33:59;5.97;92.24
49489;SHT31;35382;51.484;11.476;2023-04-15T01:35:41;5.91;92.52
49489;SHT31;35382;51.484;11.476;2023-04-15T01:37:23;5.90;92.84
49489;SHT31;35382;51.484;11.476;2023-04-15T01:39:05;5.86;92.91
49489;SHT31;35382;51.484;11.476;2023-04-15T01:40:46;5.86;93.27
49489;SHT31;35382;51.484;11.476;2023-04-15T01:42:27;5.87;93.14
49489;SHT31;35382;51.484;11.476;2023-04-15T01:44:08;5.85;93.18
49489;SHT31;35382;51.484;11.476;2023-04-15T01:45:49;5.86;93.35
49489;SHT31;35382;51.484;11.476;2023-04-15T01:47:30;5.96;92.88
49489;SHT31;35382;51.484;11.476;2023-04-15T01:49:11;5.81;93.12
49489;SHT31;35382;51.484;11.476;2023-04-15T01:50:54;5.91;92.96
49489;SHT31;35382;51.484;11.476;2023-04-15T01:52:35;5.83;93.31
49489;SHT31;35382;51.484;11.476;2023-04-15T01:54:16;5.81;93.54
49489;SHT31;35382;51.484;11.476;2023-04-15T01:55:58;5.79;93.73
49489;SHT31;35382;51.484;11.476;2023-04-15T01:57:39;5.73;93.51
49489;SHT31;35382;51.484;11.476;2023-04-15T01:59:21;5.71;93.79
49489;SHT31;35382;51.484;11.476;2023-04-15T02:01:02;5.74;93.76
49489;SHT31;35382;51.484;11.476;2023-04-15T02:02:45;5.77;93.67
49489;SHT31;35382;51.484;11.476;2023-04-15T02:04:26;5.80;93.61
49489;SHT31;35382;51.484;11.476;2023-04-15T02:06:07;5.81;93.55
49489;SHT31;35382;51.484;11.476;2023-04-15T02:07:48;5.76;93.61
49489;SHT31;35382;51.484;11.476;2023-04-15T02:09:29;5.71;94.11
49489;SHT31;35382;51.484;11.476;2023-04-15T02:11:10;5.73;94.07
49489;SHT31;35382;51.484;11.476;2023-04-15T02:12:51;5.77;93.65
49489;SHT31;35382;51.484;11.476;2023-04-15T02:14:33;5.74;93.41
49489;SHT31;35382;51.484;11.476;2023-04-15T02:16:18;5.71;94.00
49489;SHT31;35382;51.484;11.476;2023-04-15T02:17:59;5.74;94.00
49489;SHT31;35382;51.484;11.476;2023-04-15T02:19:41;5.74;93.84
49489;SHT31;35382;51.484;11.476;2023-04-15T02:21:22;5.86;93.48
49489;SHT31;35382;51.484;11.476;2023-04-15T02:23:03;5.79;93.68
49489;SHT31;35382;51.484;11.476;2023-04-15T02:24:47;5.83;93.90
49489;SHT31;35382;51.484;11.476;2023-04-15T02:26:28;5.80;93.92
49489;SHT31;35382;51.484;11.476;2023-04-15T02:28:11;5.86;93.95
49489;SHT31;35382;51.484;11.476;2023-04-15T02:29:52;5.86;93.99
49489;SHT31;35382;51.484;11.476;2023-04-15T02:31:33;5.86;94.01
49489;SHT31;35382;51.484;11.476;2023-04-15T02:33:17;5.93;93.34
49489;SHT31;35382;51.484;11.476;2023-04-15T02:35:03;5.91;93.57
49489;SHT31;35382;51.484;11.476;2023-04-15T02:36:45;5.96;93.57
49489;SHT31;35382;51.484;11.476;2023-04-15T02:38:29;5.94;93.55
49489;SHT31;35382;51.484;11.476;2023-04-15T02:40:11;5.93;93.74
49489;SHT31;35382;51.484;11.476;2023-04-15T02:41:53;6.03;93.52
49489;SHT31;35382;51.484;11.476;2023-04-15T02:43:33;6.01;93.30
49489;SHT31;35382;51.484;11.476;2023-04-15T02:45:14;5.97;93.51
49489;SHT31;35382;51.484;11.476;2023-04-15T02:46:57;5.99;93.66
49489;SHT31;35382;51.484;11.476;2023-04-15T02:48:38;6.01;93.80
49489;SHT31;35382;51.484;11.476;2023-04-15T02:50:19;5.96;93.63
49489;SHT31;35382;51.484;11.476;2023-04-15T02:52:00;5.91;94.05
49489;SHT31;35382;51.484;11.476;2023-04-15T02:53:41;5.93;94.08
49489;SHT31;35382;51.484;11.476;2023-04-15T02:55:23;5.96;93.89
49489;SHT31;35382;51.484;11.476;2023-04-15T02:57:04;5.93;93.83
49489;SHT31;35382;51.484;11.476;2023-04-15T02:58:46;5.89;94.34
49489;SHT31;35382;51.484;11.476;2023-04-15T03:00:30;5.89;94.26
49489;SHT31;35382;51.484;11.476;2023-04-15T03:02:11;5.85;94.54
49489;SHT31;35382;51.484;11.476;2023-04-15T03:03:52;5.85;94.57
49489;SHT31;35382;51.484;11.476;2023-04-15T03:05:33;5.89;94.85
49489;SHT31;35382;51.484;11.476;2023-04-15T03:07:16;5.81;94.83
49489;SHT31;35382;51.484;11.476;2023-04-15T03:08:57;5.83;94.85
49489;SHT31;35382;51.484;11.476;2023-04-15T03:10:40;5.79;95.09
49489;SHT31;35382;51.484;11.476;2023-04-15T03:12:21;5.80;95.27
49489;SHT31;35382;51.484;11.476;2023-04-15T03:14:04;5.79;95.38
49489;SHT31;35382;51.484;11.476;2023-04-15T03:15:48;5.76;95.05
49489;SHT31;35382;51.484;11.476;2023-04-15T03:17:29;5.80;95.35
49489;SHT31;35382;51.484;11.476;2023-04-15T03:19:11;5.79;95.32
49489;SHT31;35382;51.484;11.476;2023-04-15T03:20:54;5.79;95.43
49489;SHT31;35382;51.484;11.476;2023-04-15T03:22:36;5.80;95.38
49489;SHT31;35382;51.484;11.476;2023-04-15T03:24:19;5.76;95.39
49489;SHT31;35382;51.484;11.476;2023-04-15T03:26:01;5.76;95.36
49489;SHT31;35382;51.484;11.476;2023-04-15T03:27:43;5.81;95.39
49489;SHT31;35382;51.484;11.476;2023-04-15T03:29:25;5.81;95.30
49489;SHT31;35382;51.484;11.476;2023-04-15T03:31:06;5.81;95.39
49489;SHT31;35382;51.484;11.476;2023-04-15T03:32:47;5.79;95.30
49489;SHT31;35382;51.484;11.476;2023-04-15T03:34:29;5.76;95.47
49489;SHT31;35382;51.484;11.476;2023-04-15T03:36:10;5.76;95.43
49489;SHT31;35382;51.484;11.476;2023-04-15T03:37:51;5.81;95.28
49489;SHT31;35382;51.484;11.476;2023-04-15T03:39:32;5.79;95.12
49489;SHT31;35382;51.484;11.476;2023-04-15T03:41:13;5.76;95.18
49489;SHT31;35382;51.484;11.476;2023-04-15T03:42:54;5.74;95.34
49489;SHT31;35382;51.484;11.476;2023-04-15T03:44:34;5.79;95.28
49489;SHT31;35382;51.484;11.476;2023-04-15T03:46:15;5.77;95.10
49489;SHT31;35382;51.484;11.476;2023-04-15T03:47:57;5.79;95.30
49489;SHT31;35382;51.484;11.476;2023-04-15T03:49:38;5.80;95.24
49489;SHT31;35382;51.484;11.476;2023-04-15T03:51:19;5.79;95.33
49489;SHT31;35382;51.484;11.476;2023-04-15T03:53:00;5.83;95.37
49489;SHT31;35382;51.484;11.476;2023-04-15T03:54:41;5.83;95.34
49489;SHT31;35382;51.484;11.476;2023-04-15T03:56:22;5.80;95.24
49489;SHT31;35382;51.484;11.476;2023-04-15T03:58:03;5.83;95.30
49489;SHT31;35382;51.484;11.476;2023-04-15T03:59:44;5.85;95.09
49489;SHT31;35382;51.484;11.476;2023-04-15T04:01:24;5.77;95.29
49489;SHT31;35382;51.484;11.476;2023-04-15T04:03:05;5.76;95.30
49489;SHT31;35382;51.484;11.476;2023-04-15T04:04:46;5.74;95.30
49489;SHT31;35382;51.484;11.476;2023-04-15T04:06:27;5.73;95.13
49489;SHT31;35382;51.484;11.476;2023-04-15T04:08:11;5.74;95.32
49489;SHT31;35382;51.484;11.476;2023-04-15T04:09:56;5.77;95.51
49489;SHT31;35382;51.484;11.476;2023-04-15T04:11:37;5.81;95.53
49489;SHT31;35382;51.484;11.476;2023-04-15T04:13:18;5.79;95.43
49489;SHT31;35382;51.484;11.476;2023-04-15T04:14:59;5.85;95.40
49489;SHT31;35382;51.484;11.476;2023-04-15T04:16:40;5.79;95.34
49489;SHT31;35382;51.484;11.476;2023-04-15T04:18:21;5.81;95.47
49489;SHT31;35382;51.484;11.476;2023-04-15T04:20:02;5.81;95.57
49489;SHT31;35382;51.484;11.476;2023-04-15T04:21:43;5.90;95.45
49489;SHT31;35382;51.484;11.476;2023-04-15T04:23:25;5.89;95.62
49489;SHT31;35382;51.484;11.476;2023-04-15T04:25:06;5.90;95.42
49489;SHT31;35382;51.484;11.476;2023-04-15T04:26:48;5.91;95.68
49489;SHT31;35382;51.484;11.476;2023-04-15T04:28:29;5.83;95.39
49489;SHT31;35382;51.484;11.476;2023-04-15T04:30:10;5.85;95.63
49489;SHT31;35382;51.484;11.476;2023-04-15T04:31:51;5.85;95.46
49489;SHT31;35382;51.484;11.476;2023-04-15T04:33:32;5.86;95.30
49489;SHT31;35382;51.484;11.476;2023-04-15T04:35:13;5.83;95.45
49489;SHT31;35382;51.484;11.476;2023-04-15T04:36:54;5.89;95.78
49489;SHT31;35382;51.484;11.476;2023-04-15T04:38:35;5.86;95.67
49489;SHT31;35382;51.484;11.476;2023-04-15T04:40:16;5.87;95.71
49489;SHT31;35382;51.484;11.476;2023-04-15T04:41:57;5.94;95.82
49489;SHT31;35382;51.484;11.476;2023-04-15T04:43:38;5.93;95.81
49489;SHT31;35382;51.484;11.476;2023-04-15T04:45:19;6.00;95.86
49489;SHT31;35382;51.484;11.476;2023-04-15T04:47:00;5.96;95.67
49489;SHT31;35382;51.484;11.476;2023-04-15T04:48:41;6.00;95.69
49489;SHT31;35382;51.484;11.476;2023-04-15T04:50:22;6.07;95.83
49489;SHT31;35382;51.484;11.476;2023-04-15T04:52:04;6.10;95.03
49489;SHT31;35382;51.484;11.476;2023-04-15T04:53:45;6.10;95.12
49489;SHT31;35382;51.484;11.476;2023-04-15T04:55:26;6.17;95.25
49489;SHT31;35382;51.484;11.476;2023-04-15T04:57:07;6.18;95.05
49489;SHT31;35382;51.484;11.476;2023-04-15T04:58:48;6.23;94.84
49489;SHT31;35382;51.484;11.476;2023-04-15T05:00:29;6.23;94.68
49489;SHT31;35382;51.484;11.476;2023-04-15T05:02:10;6.18;94.81
49489;SHT31;35382;51.484;11.476;2023-04-15T05:03:51;6.21;95.01
49489;SHT31;35382;51.484;11.476;2023-04-15T05:05:32;6.17;94.86
49489;SHT31;35382;51.484;11.476;2023-04-15T05:07:13;6.16;95.25
49489;SHT31;35382;51.484;11.476;2023-04-15T05:08:53;6.20;95.19
49489;SHT31;35382;51.484;11.476;2023-04-15T05:10:35;6.30;95.02
49489;SHT31;35382;51.484;11.476;2023-04-15T05:12:15;6.25;95.01
49489;SHT31;35382;51.484;11.476;2023-04-15T05:13:58;6.31;95.11
49489;SHT31;35382;51.484;11.476;2023-04-15T05:15:41;6.25;94.58
49489;SHT31;35382;51.484;11.476;2023-04-15T05:17:22;6.20;94.48
49489;SHT31;35382;51.484;11.476;2023-04-15T05:19:03;6.28;94.68
49489;SHT31;35382;51.484;11.476;2023-04-15T05:20:45;6.23;95.07
49489;SHT31;35382;51.484;11.476;2023-04-15T05:22:25;6.24;94.93
49489;SHT31;35382;51.484;11.476;2023-04-15T05:24:06;6.28;95.00
49489;SHT31;35382;51.484;11.476;2023-04-15T05:25:47;6.23;94.82
49489;SHT31;35382;51.484;11.476;2023-04-15T05:27:28;6.27;94.94
49489;SHT31;35382;51.484;11.476;2023-04-15T05:29:09;6.25;94.96
49489;SHT31;35382;51.484;11.476;2023-04-15T05:30:50;6.27;95.04
49489;SHT31;35382;51.484;11.476;2023-04-15T05:32:31;6.21;94.87
49489;SHT31;35382;51.484;11.476;2023-04-15T05:34:12;6.16;95.27
49489;SHT31;35382;51.484;11.476;2023-04-15T05:35:55;6.13;94.86
49489;SHT31;35382;51.484;11.476;2023-04-15T05:37:36;6.14;95.30
49489;SHT31;35382;51.484;11.476;2023-04-15T05:39:17;6.16;95.18
49489;SHT31;35382;51.484;11.476;2023-04-15T05:40:58;6.16;95.25
49489;SHT31;35382;51.484;11.476;2023-04-15T05:42:41;6.24;95.21
49489;SHT31;35382;51.484;11.476;2023-04-15T05:44:22;6.24;95.02
49489;SHT31;35382;51.484;11.476;2023-04-15T05:46:04;6.25;95.21
49489;SHT31;35382;51.484;11.476;2023-04-15T05:47:44;6.23;95.04
49489;SHT31;35382;51.484;11.476;2023-04-15T05:49:26;6.23;95.15
49489;SHT31;35382;51.484;11.476;2023-04-15T05:51:07;6.25;95.08
49489;SHT31;35382;51.484;11.476;2023-04-15T05:52:48;6.25;95.15
49489;SHT31;35382;51.484;11.476;2023-04-15T05:54:30;6.27;95.31
49489;SHT31;35382;51.484;11.476;2023-04-15T05:56:11;6.23;95.27
49489;SHT31;35382;51.484;11.476;2023-04-15T05:57:52;6.33;95.17
49489;SHT31;35382;51.484;11.476;2023-04-15T05:59:33;6.30;95.17
49489;SHT31;35382;51.484;11.476;2023-04-15T06:01:14;6.27;95.28
49489;SHT31;35382;51.484;11.476;2023-04-15T06:02:55;6.27;95.37
49489;SHT31;35382;51.484;11.476;2023-04-15T06:04:37;6.25;95.41
49489;SHT31;35382;51.484;11.476;2023-04-15T06:06:18;6.33;95.10
49489;SHT31;35382;51.484;11.476;2023-04-15T06:08:00;6.27;95.28
49489;SHT31;35382;51.484;11.476;2023-04-15T06:09:41;6.25;95.37
49489;SHT31;35382;51.484;11.476;2023-04-15T06:11:22;6.27;95.25
49489;SHT31;35382;51.484;11.476;2023-04-15T06:13:03;6.35;95.22
49489;SHT31;35382;51.484;11.476;2023-04-15T06:14:44;6.37;95.04
49489;SHT31;35382;51.484;11.476;2023-04-15T06:16:25;6.37;95.05
49489;SHT31;35382;51.484;11.476;2023-04-15T06:18:06;6.37;94.88
49489;SHT31;35382;51.484;11.476;2023-04-15T06:19:47;6.30;94.94
49489;SHT31;35382;51.484;11.476;2023-04-15T06:21:30;6.37;95.15
49489;SHT31;35382;51.484;11.476;2023-04-15T06:23:11;6.35;95.42
49489;SHT31;35382;51.484;11.476;2023-04-15T06:24:52;6.40;95.42
49489;SHT31;35382;51.484;11.476;2023-04-15T06:26:33;6.38;94.83
49489;SHT31;35382;51.484;11.476;2023-04-15T06:28:14;6.40;94.80
49489;SHT31;35382;51.484;11.476;2023-04-15T06:29:55;6.48;94.86
49489;SHT31;35382;51.484;11.476;2023-04-15T06:31:36;6.52;94.85
49489;SHT31;35382;51.484;11.476;2023-04-15T06:33:17;6.59;94.72
49489;SHT31;35382;51.484;11.476;2023-04-15T06:34:58;6.57;94.69
49489;SHT31;35382;51.484;11.476;2023-04-15T06:36:39;6.57;95.02
49489;SHT31;35382;51.484;11.476;2023-04-15T06:38:20;6.59;94.26
49489;SHT31;35382;51.484;11.476;2023-04-15T06:40:01;6.58;94.66
49489;SHT31;35382;51.484;11.476;2023-04-15T06:41:42;6.61;94.37
49489;SHT31;35382;51.484;11.476;2023-04-15T06:43:23;6.59;94.44
49489;SHT31;35382;51.484;11.476;2023-04-15T06:45:04;6.61;94.61
49489;SHT31;35382;51.484;11.476;2023-04-15T06:46:46;6.54;94.47
49489;SHT31;35382;51.484;11.476;2023-04-15T06:48:27;6.48;94.56
49489;SHT31;35382;51.484;11.476;2023-04-15T06:50:08;6.48;94.62
49489;SHT31;35382;51.484;11.476;2023-04-15T06:51:49;6.49;94.83
49489;SHT31;35382;51.484;11.476;2023-04-15T06:53:31;6.42;94.77
49489;SHT31;35382;51.484;11.476;2023-04-15T06:55:12;6.52;94.57
49489;SHT31;35382;51.484;11.476;2023-04-15T06:56:53;6.44;94.67
49489;SHT31;35382;51.484;11.476;2023-04-15T06:58:34;6.61;94.85
49489;SHT31;35382;51.484;11.476;2023-04-15T07:00:15;6.59;94.37
49489;SHT31;35382;51.484;11.476;2023-04-15T07:01:56;6.65;94.54
49489;SHT31;35382;51.484;11.476;2023-04-15T07:03:37;6.63;94.31
49489;SHT31;35382;51.484;11.476;2023-04-15T07:05:18;6.67;94.30
49489;SHT31;35382;51.484;11.476;2023-04-15T07:06:59;6.58;94.35
49489;SHT31;35382;51.484;11.476;2023-04-15T07:08:42;6.63;94.41
49489;SHT31;35382;51.484;11.476;2023-04-15T07:10:23;6.61;94.70
49489;SHT31;35382;51.484;11.476;2023-04-15T07:12:04;6.72;94.35
49489;SHT31;35382;51.484;11.476;2023-04-15T07:13:45;6.67;94.15
49489;SHT31;35382;51.484;11.476;2023-04-15T07:15:26;6.69;94.40
49489;SHT31;35382;51.484;11.476;2023-04-15T07:17:08;6.72;94.46
49489;SHT31;35382;51.484;11.476;2023-04-15T07:18:49;6.77;94.39
49489;SHT31;35382;51.484;11.476;2023-04-15T07:20:30;6.69;94.31
49489;SHT31;35382;51.484;11.476;2023-04-15T07:22:10;6.65;94.55
49489;SHT31;35382;51.484;11.476;2023-04-15T07:23:51;6.64;94.08
49489;SHT31;35382;51.484;11.476;2023-04-15T07:25:32;6.69;94.29
49489;SHT31;35382;51.484;11.476;2023-04-15T07:27:13;6.69;94.55
49489;SHT31;35382;51.484;11.476;2023-04-15T07:28:54;6.64;94.74
49489;SHT31;35382;51.484;11.476;2023-04-15T07:30:35;6.68;95.18
49489;SHT31;35382;51.484;11.476;2023-04-15T07:32:16;6.67;94.94
49489;SHT31;35382;51.484;11.476;2023-04-15T07:33:57;6.75;94.75
49489;SHT31;35382;51.484;11.476;2023-04-15T07:35:39;6.75;94.76
49489;SHT31;35382;51.484;11.476;2023-04-15T07:37:20;6.87;94.75
49489;SHT31;35382;51.484;11.476;2023-04-15T07:39:01;6.92;94.30
49489;SHT31;35382;51.484;11.476;2023-04-15T07:40:43;6.99;93.95
49489;SHT31;35382;51.484;11.476;2023-04-15T07:42:24;7.12;93.72
49489;SHT31;35382;51.484;11.476;2023-04-15T07:44:05;7.12;93.82
49489;SHT31;35382;51.484;11.476;2023-04-15T07:45:46;7.11;93.51
49489;SHT31;35382;51.484;11.476;2023-04-15T07:47:27;7.13;93.29
49489;SHT31;35382;51.484;11.476;2023-04-15T07:49:08;7.16;93.42
49489;SHT31;35382;51.484;11.476;2023-04-15T07:50:48;7.22;93.71
49489;SHT31;35382;51.484;11.476;2023-04-15T07:52:29;7.15;93.54
49489;SHT31;35382;51.484;11.476;2023-04-15T07:54:10;7.16;94.01
49489;SHT31;35382;51.484;11.476;2023-04-15T07:55:51;7.13;93.85
49489;SHT31;35382;51.484;11.476;2023-04-15T07:57:33;7.12;93.75
49489;SHT31;35382;51.484;11.476;2023-04-15T07:59:15;7.05;93.74
49489;SHT31;35382;51.484;11.476;2023-04-15T08:00:57;7.05;93.78
49489;SHT31;35382;51.484;11.476;2023-04-15T08:02:38;7.11;93.69
49489;SHT31;35382;51.484;11.476;2023-04-15T08:04:19;7.15;93.42
49489;SHT31;35382;51.484;11.476;2023-04-15T08:06:00;7.30;93.04
49489;SHT31;35382;51.484;11.476;2023-04-15T08:07:41;7.35;93.16
49489;SHT31;35382;51.484;11.476;2023-04-15T08:09:22;7.42;93.17
49489;SHT31;35382;51.484;11.476;2023-04-15T08:11:03;7.36;92.79
49489;SHT31;35382;51.484;11.476;2023-04-15T08:12:44;7.47;92.48
49489;SHT31;35382;51.484;11.476;2023-04-15T08:14:28;7.46;92.72
49489;SHT31;35382;51.484;11.476;2023-04-15T08:16:15;7.49;92.21
49489;SHT31;35382;51.484;11.476;2023-04-15T08:17:59;7.39;92.41
49489;SHT31;35382;51.484;11.476;2023-04-15T08:19:40;7.32;92.81
49489;SHT31;35382;51.484;11.476;2023-04-15T08:21:22;7.35;92.75
49489;SHT31;35382;51.484;11.476;2023-04-15T08:23:03;7.37;92.56
49489;SHT31;35382;51.484;11.476;2023-04-15T08:24:44;7.32;92.88
49489;SHT31;35382;51.484;11.476;2023-04-15T08:26:25;7.35;93.12
49489;SHT31;35382;51.484;11.476;2023-04-15T08:28:07;7.40;92.71
49489;SHT31;35382;51.484;11.476;2023-04-15T08:29:48;7.43;92.93
49489;SHT31;35382;51.484;11.476;2023-04-15T08:31:29;7.55;93.08
49489;SHT31;35382;51.484;11.476;2023-04-15T08:33:10;7.47;93.05
49489;SHT31;35382;51.484;11.476;2023-04-15T08:34:51;7.45;93.29
49489;SHT31;35382;51.484;11.476;2023-04-15T08:36:32;7.33;93.43
49489;SHT31;35382;51.484;11.476;2023-04-15T08:38:13;7.35;93.42
49489;SHT31;35382;51.484;11.476;2023-04-15T08:39:54;7.36;93.63
49489;SHT31;35382;51.484;11.476;2023-04-15T08:41:41;7.46;93.64
49489;SHT31;35382;51.484;11.476;2023-04-15T08:43:34;7.46;93.49
49489;SHT31;35382;51.484;11.476;2023-04-15T08:45:15;7.46;93.49
49489;SHT31;35382;51.484;11.476;2023-04-15T08:47:01;7.47;93.57
49489;SHT31;35382;51.484;11.476;2023-04-15T08:48:42;7.52;93.59
49489;SHT31;35382;51.484;11.476;2023-04-15T08:50:25;7.53;93.51
49489;SHT31;35382;51.484;11.476;2023-04-15T08:52:06;7.46;93.73
49489;SHT31;35382;51.484;11.476;2023-04-15T08:53:49;7.49;94.25
49489;SHT31;35382;51.484;11.476;2023-04-15T08:55:32;7.49;93.73
49489;SHT31;35382;51.484;11.476;2023-04-15T08:57:15;7.42;93.71
49489;SHT31;35382;51.484;11.476;2023-04-15T08:58:56;7.40;94.31
49489;SHT31;35382;51.484;11.476;2023-04-15T09:00:38;7.37;94.31
49489;SHT31;35382;51.484;11.476;2023-04-15T09:02:20;7.37;94.24
49489;SHT31;35382;51.484;11.476;2023-04-15T09:04:02;7.50;94.22
49489;SHT31;35382;51.484;11.476;2023-04-15T09:05:43;7.47;94.30
49489;SHT31;35382;51.484;11.476;2023-04-15T09:07:26;7.49;94.11
49489;SHT31;35382;51.484;11.476;2023-04-15T09:09:07;7.52;94.36
49489;SHT31;35382;51.484;11.476;2023-04-15T09:10:48;7.43;94.23
49489;SHT31;35382;51.484;11.476;2023-04-15T09:12:29;7.42;94.47
49489;SHT31;35382;51.484;11.476;2023-04-15T09:14:11;7.33;94.79
49489;SHT31;35382;51.484;11.476;2023-04-15T09:15:52;7.27;94.77
49489;SHT31;35382;51.484;11.476;2023-04-15T09:17:33;7.20;94.94
49489;SHT31;35382;51.484;11.476;2023-04-15T09:19:23;7.22;94.85
49489;SHT31;35382;51.484;11.476;2023-04-15T09:21:08;7.12;95.26
49489;SHT31;35382;51.484;11.476;2023-04-15T09:22:51;7.20;95.48
49489;SHT31;35382;51.484;11.476;2023-04-15T09:24:36;7.16;95.56
49489;SHT31;35382;51.484;11.476;2023-04-15T09:26:18;7.15;95.32
49489;SHT31;35382;51.484;11.476;2023-04-15T09:28:00;7.26;95.17
49489;SHT31;35382;51.484;11.476;2023-04-15T09:29:41;7.18;95.19
49489;SHT31;35382;51.484;11.476;2023-04-15T09:31:29;7.18;95.57
49489;SHT31;35382;51.484;11.476;2023-04-15T09:33:13;7.18;95.58
49489;SHT31;35382;51.484;11.476;2023-04-15T09:34:54;7.12;95.36
49489;SHT31;35382;51.484;11.476;2023-04-15T09:38:30;7.09;95.63
49489;SHT31;35382;51.484;11.476;2023-04-15T09:40:11;7.12;95.58
49489;SHT31;35382;51.484;11.476;2023-04-15T09:42:06;7.13;95.91
49489;SHT31;35382;51.484;11.476;2023-04-15T09:43:47;7.13;95.63
49489;SHT31;35382;51.484;11.476;2023-04-15T09:45:28;7.16;95.58
49489;SHT31;35382;51.484;11.476;2023-04-15T09:47:26;7.19;95.86
49489;SHT31;35382;51.484;11.476;2023-04-15T09:49:07;7.12;95.85
49489;SHT31;35382;51.484;11.476;2023-04-15T09:50:49;7.15;95.93
49489;SHT31;35382;51.484;11.476;2023-04-15T09:52:30;7.22;96.04
49489;SHT31;35382;51.484;11.476;2023-04-15T09:54:11;7.20;95.87
49489;SHT31;35382;51.484;11.476;2023-04-15T09:55:57;7.23;95.89
49489;SHT31;35382;51.484;11.476;2023-04-15T09:57:40;7.25;95.97
49489;SHT31;35382;51.484;11.476;2023-04-15T09:59:22;7.26;96.02
49489;SHT31;35382;51.484;11.476;2023-04-15T10:01:04;7.22;95.94
49489;SHT31;35382;51.484;11.476;2023-04-15T10:02:46;7.22;96.05
49489;SHT31;35382;51.484;11.476;2023-04-15T10:04:28;7.35;96.05
49489;SHT31;35382;51.484;11.476;2023-04-15T10:06:10;7.40;95.86
49489;SHT31;35382;51.484;11.476;2023-04-15T10:07:54;7.40;96.00
49489;SHT31;35382;51.484;11.476;2023-04-15T10:09:37;7.47;95.99
49489;SHT31;35382;51.484;11.476;2023-04-15T10:11:18;7.50;95.74
49489;SHT31;35382;51.484;11.476;2023-04-15T10:13:00;7.53;95.74
49489;SHT31;35382;51.484;11.476;2023-04-15T10:14:43;7.55;95.76
49489;SHT31;35382;51.484;11.476;2023-04-15T10:16:27;7.49;95.72
49489;SHT31;35382;51.484;11.476;2023-04-15T10:18:14;7.47;96.15
49489;SHT31;35382;51.484;11.476;2023-04-15T10:19:55;7.56;96.22
49489;SHT31;35382;51.484;11.476;2023-04-15T10:21:36;7.52;95.90
49489;SHT31;35382;51.484;11.476;2023-04-15T10:23:18;7.50;96.09
49489;SHT31;35382;51.484;11.476;2023-04-15T10:25:01;7.60;96.04
49489;SHT31;35382;51.484;11.476;2023-04-15T10:26:43;7.65;95.73
49489;SHT31;35382;51.484;11.476;2023-04-15T10:28:24;7.80;95.73
49489;SHT31;35382;51.484;11.476;2023-04-15T10:30:06;7.81;95.52
49489;SHT31;35382;51.484;11.476;2023-04-15T10:31:48;7.84;95.26
49489;SHT31;35382;51.484;11.476;2023-04-15T10:33:30;7.71;95.55
49489;SHT31;35382;51.484;11.476;2023-04-15T10:35:12;7.74;95.82
49489;SHT31;35382;51.484;11.476;2023-04-15T10:37:03;7.70;95.73
49489;SHT31;35382;51.484;11.476;2023-04-15T10:38:44;7.87;95.88
49489;SHT31;35382;51.484;11.476;2023-04-15T10:40:29;7.94;95.64
49489;SHT31;35382;51.484;11.476;2023-04-15T10:42:15;7.91;95.53
49489;SHT31;35382;51.484;11.476;2023-04-15T10:44:02;7.90;95.71